sensor_id;sensor_type;location;lat;lon;timestamp;P1;durP1;ratioP1;P2;durP2;ratioP2
44694;SDS011;32845;59.422;17.930;2023-08-08T00:02:07;1.55;;;0.60;;
44694;SDS011;32845;59.422;17.930;2023-08-08T00:06:38;2.67;;;0.50;;
44694;SDS011;32845;59.422;17.930;2023-08-08T00:11:08;2.38;;;0.52;;
44694;SDS011;32845;59.422;17.930;2023-08-08T00:15:39;4.78;;;0.63;;
44694;SDS011;32845;59.422;17.930;2023-08-08T00:20:10;8.13;;;0.82;;
44694;SDS011;32845;59.422;17.930;2023-08-08T00:24:41;3.58;;;0.55;;
44694;SDS011;32845;59.422;17.930;2023-08-08T00:29:12;2.58;;;0.60;;
44694;SDS011;32845;59.422;17.930;2023-08-08T00:33:42;3.67;;;0.70;;
44694;SDS011;32845;59.422;17.930;2023-08-08T00:38:13;3.30;;;0.63;;
44694;SDS011;32845;59.422;17.930;2023-08-08T00:42:43;1.63;;;0.50;;
44694;SDS011;32845;59.422;17.930;2023-08-08T00:47:14;2.63;;;0.43;;
44694;SDS011;32845;59.422;17.930;2023-08-08T00:51:45;6.95;;;0.77;;
44694;SDS011;32845;59.422;17.930;2023-08-08T00:56:16;6.47;;;0.63;;
44694;SDS011;32845;59.422;17.930;2023-08-08T01:00:47;3.95;;;0.60;;
44694;SDS011;32845;59.422;17.930;2023-08-08T01:05:18;7.10;;;0.55;;
44694;SDS011;32845;59.422;17.930;2023-08-08T01:09:51;4.03;;;0.90;;
44694;SDS011;32845;59.422;17.930;2023-08-08T01:14:36;4.72;;;0.70;;
44694;SDS011;32845;59.422;17.930;2023-08-08T01:19:12;3.03;;;0.50;;
44694;SDS011;32845;59.422;17.930;2023-08-08T01:28:48;8.60;;;0.85;;
44694;SDS011;32845;59.422;17.930;2023-08-08T01:33:23;4.22;;;0.70;;
44694;SDS011;32845;59.422;17.930;2023-08-08T01:37:54;3.90;;;0.65;;
44694;SDS011;32845;59.422;17.930;2023-08-08T01:42:34;4.45;;;0.60;;
44694;SDS011;32845;59.422;17.930;2023-08-08T01:47:05;3.60;;;0.50;;
44694;SDS011;32845;59.422;17.930;2023-08-08T01:51:36;7.90;;;0.70;;
44694;SDS011;32845;59.422;17.930;2023-08-08T01:56:07;3.20;;;0.60;;
44694;SDS011;32845;59.422;17.930;2023-08-08T02:00:38;5.30;;;0.50;;
44694;SDS011;32845;59.422;17.930;2023-08-08T02:05:10;9.23;;;0.98;;
44694;SDS011;32845;59.422;17.930;2023-08-08T02:09:41;5.85;;;1.02;;
44694;SDS011;32845;59.422;17.930;2023-08-08T02:14:12;4.07;;;0.60;;
44694;SDS011;32845;59.422;17.930;2023-08-08T02:18:42;6.38;;;0.75;;
44694;SDS011;32845;59.422;17.930;2023-08-08T02:23:13;4.45;;;0.50;;
44694;SDS011;32845;59.422;17.930;2023-08-08T02:27:44;2.13;;;0.68;;
44694;SDS011;32845;59.422;17.930;2023-08-08T02:32:14;2.42;;;0.50;;
44694;SDS011;32845;59.422;17.930;2023-08-08T02:36:45;6.30;;;0.60;;
44694;SDS011;32845;59.422;17.930;2023-08-08T02:41:16;3.95;;;1.00;;
44694;SDS011;32845;59.422;17.930;2023-08-08T02:45:46;5.88;;;0.82;;
44694;SDS011;32845;59.422;17.930;2023-08-08T02:50:17;7.25;;;0.80;;
44694;SDS011;32845;59.422;17.930;2023-08-08T02:54:47;4.57;;;0.60;;
44694;SDS011;32845;59.422;17.930;2023-08-08T02:59:18;9.00;;;0.70;;
44694;SDS011;32845;59.422;17.930;2023-08-08T03:03:49;3.47;;;0.63;;
44694;SDS011;32845;59.422;17.930;2023-08-08T03:08:19;5.07;;;0.68;;
44694;SDS011;32845;59.422;17.930;2023-08-08T03:12:50;9.63;;;0.88;;
44694;SDS011;32845;59.422;17.930;2023-08-08T03:17:21;6.40;;;0.63;;
44694;SDS011;32845;59.422;17.930;2023-08-08T03:21:51;6.00;;;0.90;;
44694;SDS011;32845;59.422;17.930;2023-08-08T03:26:22;3.08;;;0.70;;
44694;SDS011;32845;59.422;17.930;2023-08-08T03:30:53;4.13;;;0.85;;
44694;SDS011;32845;59.422;17.930;2023-08-08T03:35:23;3.40;;;0.68;;
44694;SDS011;32845;59.422;17.930;2023-08-08T03:39:54;4.55;;;0.80;;
44694;SDS011;32845;59.422;17.930;2023-08-08T03:44:25;2.03;;;0.60;;
44694;SDS011;32845;59.422;17.930;2023-08-08T03:48:55;3.95;;;0.52;;
44694;SDS011;32845;59.422;17.930;2023-08-08T03:53:26;4.05;;;0.47;;
44694;SDS011;32845;59.422;17.930;2023-08-08T03:57:57;3.83;;;0.60;;
44694;SDS011;32845;59.422;17.930;2023-08-08T04:02:27;1.77;;;0.40;;
44694;SDS011;32845;59.422;17.930;2023-08-08T04:06:58;2.60;;;0.40;;
44694;SDS011;32845;59.422;17.930;2023-08-08T04:11:29;4.40;;;0.50;;
44694;SDS011;32845;59.422;17.930;2023-08-08T04:16:00;3.45;;;0.60;;
44694;SDS011;32845;59.422;17.930;2023-08-08T04:20:31;1.02;;;0.30;;
44694;SDS011;32845;59.422;17.930;2023-08-08T04:25:03;2.53;;;0.63;;
44694;SDS011;32845;59.422;17.930;2023-08-08T04:29:34;7.10;;;0.40;;
44694;SDS011;32845;59.422;17.930;2023-08-08T04:34:05;0.80;;;0.38;;
44694;SDS011;32845;59.422;17.930;2023-08-08T04:38:35;0.90;;;0.30;;
44694;SDS011;32845;59.422;17.930;2023-08-08T04:43:11;0.75;;;0.30;;
44694;SDS011;32845;59.422;17.930;2023-08-08T04:47:41;1.92;;;0.25;;
44694;SDS011;32845;59.422;17.930;2023-08-08T04:52:12;0.77;;;0.25;;
44694;SDS011;32845;59.422;17.930;2023-08-08T04:56:43;0.98;;;0.22;;
44694;SDS011;32845;59.422;17.930;2023-08-08T05:01:13;2.83;;;0.50;;
44694;SDS011;32845;59.422;17.930;2023-08-08T05:05:45;2.67;;;0.60;;
44694;SDS011;32845;59.422;17.930;2023-08-08T05:10:16;1.98;;;0.40;;
44694;SDS011;32845;59.422;17.930;2023-08-08T05:14:47;2.28;;;0.38;;
44694;SDS011;32845;59.422;17.930;2023-08-08T05:19:17;7.00;;;0.57;;
44694;SDS011;32845;59.422;17.930;2023-08-08T05:23:48;1.90;;;0.30;;
44694;SDS011;32845;59.422;17.930;2023-08-08T05:28:18;1.67;;;0.40;;
44694;SDS011;32845;59.422;17.930;2023-08-08T05:32:49;2.15;;;0.40;;
44694;SDS011;32845;59.422;17.930;2023-08-08T05:37:19;3.08;;;0.40;;
44694;SDS011;32845;59.422;17.930;2023-08-08T05:41:50;2.13;;;0.32;;
44694;SDS011;32845;59.422;17.930;2023-08-08T05:46:21;3.63;;;0.50;;
44694;SDS011;32845;59.422;17.930;2023-08-08T05:50:51;2.30;;;0.20;;
44694;SDS011;32845;59.422;17.930;2023-08-08T05:55:22;3.45;;;0.40;;
44694;SDS011;32845;59.422;17.930;2023-08-08T05:59:52;1.48;;;0.40;;
44694;SDS011;32845;59.422;17.930;2023-08-08T06:04:23;2.83;;;0.47;;
44694;SDS011;32845;59.422;17.930;2023-08-08T06:08:54;1.42;;;0.60;;
44694;SDS011;32845;59.422;17.930;2023-08-08T06:13:24;1.00;;;0.40;;
44694;SDS011;32845;59.422;17.930;2023-08-08T06:17:55;1.60;;;0.43;;
44694;SDS011;32845;59.422;17.930;2023-08-08T06:22:27;1.00;;;0.38;;
44694;SDS011;32845;59.422;17.930;2023-08-08T06:26:58;0.95;;;0.50;;
44694;SDS011;32845;59.422;17.930;2023-08-08T06:31:29;2.13;;;0.57;;
44694;SDS011;32845;59.422;17.930;2023-08-08T06:36:00;0.88;;;0.20;;
44694;SDS011;32845;59.422;17.930;2023-08-08T06:40:33;3.22;;;0.20;;
44694;SDS011;32845;59.422;17.930;2023-08-08T06:45:03;0.77;;;0.20;;
44694;SDS011;32845;59.422;17.930;2023-08-08T06:49:35;1.60;;;0.20;;
44694;SDS011;32845;59.422;17.930;2023-08-08T06:54:10;0.50;;;0.30;;
44694;SDS011;32845;59.422;17.930;2023-08-08T06:58:41;1.38;;;0.30;;
44694;SDS011;32845;59.422;17.930;2023-08-08T07:03:11;1.65;;;0.30;;
44694;SDS011;32845;59.422;17.930;2023-08-08T07:07:42;0.35;;;0.20;;
44694;SDS011;32845;59.422;17.930;2023-08-08T07:12:12;1.85;;;0.30;;
44694;SDS011;32845;59.422;17.930;2023-08-08T07:16:43;1.20;;;0.43;;
44694;SDS011;32845;59.422;17.930;2023-08-08T07:21:19;6.45;;;0.22;;
44694;SDS011;32845;59.422;17.930;2023-08-08T07:25:50;0.60;;;0.50;;
44694;SDS011;32845;59.422;17.930;2023-08-08T07:30:21;0.30;;;0.30;;
44694;SDS011;32845;59.422;17.930;2023-08-08T07:34:51;0.65;;;0.20;;
44694;SDS011;32845;59.422;17.930;2023-08-08T07:39:22;1.17;;;0.35;;
44694;SDS011;32845;59.422;17.930;2023-08-08T07:43:58;1.42;;;0.43;;
44694;SDS011;32845;59.422;17.930;2023-08-08T07:48:28;0.65;;;0.30;;
44694;SDS011;32845;59.422;17.930;2023-08-08T07:52:59;0.88;;;0.40;;
44694;SDS011;32845;59.422;17.930;2023-08-08T07:57:29;3.22;;;0.50;;
44694;SDS011;32845;59.422;17.930;2023-08-08T08:02:01;1.13;;;0.40;;
44694;SDS011;32845;59.422;17.930;2023-08-08T08:06:32;1.15;;;0.52;;
44694;SDS011;32845;59.422;17.930;2023-08-08T08:11:08;3.13;;;0.50;;
44694;SDS011;32845;59.422;17.930;2023-08-08T08:15:38;2.15;;;0.68;;
44694;SDS011;32845;59.422;17.930;2023-08-08T08:20:09;4.85;;;0.60;;
44694;SDS011;32845;59.422;17.930;2023-08-08T08:24:47;3.97;;;0.90;;
44694;SDS011;32845;59.422;17.930;2023-08-08T08:29:17;3.15;;;0.80;;
44694;SDS011;32845;59.422;17.930;2023-08-08T08:33:53;1.00;;;0.52;;
44694;SDS011;32845;59.422;17.930;2023-08-08T08:38:25;7.20;;;0.70;;
44694;SDS011;32845;59.422;17.930;2023-08-08T08:42:55;3.75;;;0.80;;
44694;SDS011;32845;59.422;17.930;2023-08-08T08:47:26;1.75;;;0.80;;
44694;SDS011;32845;59.422;17.930;2023-08-08T08:52:01;2.70;;;0.73;;
44694;SDS011;32845;59.422;17.930;2023-08-08T08:56:31;4.13;;;0.80;;
44694;SDS011;32845;59.422;17.930;2023-08-08T09:01:02;4.63;;;0.85;;
44694;SDS011;32845;59.422;17.930;2023-08-08T09:05:34;3.47;;;1.00;;
44694;SDS011;32845;59.422;17.930;2023-08-08T09:10:05;0.88;;;0.55;;
44694;SDS011;32845;59.422;17.930;2023-08-08T09:14:39;0.35;;;0.30;;
44694;SDS011;32845;59.422;17.930;2023-08-08T09:19:11;2.95;;;0.60;;
44694;SDS011;32845;59.422;17.930;2023-08-08T09:23:42;1.67;;;0.57;;
44694;SDS011;32845;59.422;17.930;2023-08-08T09:28:14;1.33;;;0.40;;
44694;SDS011;32845;59.422;17.930;2023-08-08T09:32:44;0.98;;;0.50;;
44694;SDS011;32845;59.422;17.930;2023-08-08T09:37:15;0.28;;;0.28;;
44694;SDS011;32845;59.422;17.930;2023-08-08T09:41:47;1.95;;;0.20;;
44694;SDS011;32845;59.422;17.930;2023-08-08T09:46:21;3.80;;;0.60;;
44694;SDS011;32845;59.422;17.930;2023-08-08T09:50:52;0.45;;;0.40;;
44694;SDS011;32845;59.422;17.930;2023-08-08T09:55:23;6.18;;;0.63;;
44694;SDS011;32845;59.422;17.930;2023-08-08T09:59:53;1.00;;;0.70;;
44694;SDS011;32845;59.422;17.930;2023-08-08T10:04:26;0.95;;;0.70;;
44694;SDS011;32845;59.422;17.930;2023-08-08T10:08:57;2.75;;;0.70;;
44694;SDS011;32845;59.422;17.930;2023-08-08T10:13:34;1.15;;;0.80;;
44694;SDS011;32845;59.422;17.930;2023-08-08T10:18:05;0.90;;;0.70;;
44694;SDS011;32845;59.422;17.930;2023-08-08T10:22:42;4.60;;;1.00;;
44694;SDS011;32845;59.422;17.930;2023-08-08T10:27:14;4.73;;;0.90;;
44694;SDS011;32845;59.422;17.930;2023-08-08T10:32:00;3.70;;;0.90;;
44694;SDS011;32845;59.422;17.930;2023-08-08T10:36:42;0.88;;;0.60;;
44694;SDS011;32845;59.422;17.930;2023-08-08T10:41:22;0.30;;;0.30;;
44694;SDS011;32845;59.422;17.930;2023-08-08T10:46:00;1.33;;;0.30;;
44694;SDS011;32845;59.422;17.930;2023-08-08T10:50:31;0.50;;;0.32;;
44694;SDS011;32845;59.422;17.930;2023-08-08T10:55:17;0.70;;;0.50;;
44694;SDS011;32845;59.422;17.930;2023-08-08T10:59:49;2.58;;;0.50;;
44694;SDS011;32845;59.422;17.930;2023-08-08T11:04:20;0.60;;;0.57;;
44694;SDS011;32845;59.422;17.930;2023-08-08T11:08:53;1.35;;;0.40;;
44694;SDS011;32845;59.422;17.930;2023-08-08T11:13:24;3.67;;;0.68;;
44694;SDS011;32845;59.422;17.930;2023-08-08T11:17:56;2.03;;;0.40;;
44694;SDS011;32845;59.422;17.930;2023-08-08T11:22:26;3.00;;;0.60;;
44694;SDS011;32845;59.422;17.930;2023-08-08T11:26:58;1.48;;;0.50;;
44694;SDS011;32845;59.422;17.930;2023-08-08T11:31:29;1.70;;;0.40;;
44694;SDS011;32845;59.422;17.930;2023-08-08T11:36:00;1.25;;;0.40;;
44694;SDS011;32845;59.422;17.930;2023-08-08T11:40:31;1.10;;;0.52;;
44694;SDS011;32845;59.422;17.930;2023-08-08T11:45:03;1.67;;;0.68;;
44694;SDS011;32845;59.422;17.930;2023-08-08T11:49:41;3.08;;;0.70;;
44694;SDS011;32845;59.422;17.930;2023-08-08T11:54:14;1.08;;;0.95;;
44694;SDS011;32845;59.422;17.930;2023-08-08T11:58:46;1.95;;;0.55;;
44694;SDS011;32845;59.422;17.930;2023-08-08T12:03:21;1.42;;;0.60;;
44694;SDS011;32845;59.422;17.930;2023-08-08T12:07:52;4.43;;;0.70;;
44694;SDS011;32845;59.422;17.930;2023-08-08T12:12:23;2.90;;;0.60;;
44694;SDS011;32845;59.422;17.930;2023-08-08T12:16:56;2.70;;;0.90;;
44694;SDS011;32845;59.422;17.930;2023-08-08T12:21:27;1.27;;;0.55;;
44694;SDS011;32845;59.422;17.930;2023-08-08T12:25:58;1.58;;;0.70;;
44694;SDS011;32845;59.422;17.930;2023-08-08T12:30:29;2.95;;;0.50;;
44694;SDS011;32845;59.422;17.930;2023-08-08T12:35:00;0.93;;;0.50;;
44694;SDS011;32845;59.422;17.930;2023-08-08T12:39:31;1.70;;;0.40;;
44694;SDS011;32845;59.422;17.930;2023-08-08T12:44:01;5.13;;;0.73;;
44694;SDS011;32845;59.422;17.930;2023-08-08T12:48:33;2.30;;;0.60;;
44694;SDS011;32845;59.422;17.930;2023-08-08T12:53:03;3.78;;;0.60;;
44694;SDS011;32845;59.422;17.930;2023-08-08T12:57:34;3.75;;;0.68;;
44694;SDS011;32845;59.422;17.930;2023-08-08T13:02:05;2.20;;;0.52;;
44694;SDS011;32845;59.422;17.930;2023-08-08T13:06:36;2.97;;;0.68;;
44694;SDS011;32845;59.422;17.930;2023-08-08T13:11:12;1.90;;;0.60;;
44694;SDS011;32845;59.422;17.930;2023-08-08T13:15:43;4.55;;;0.82;;
44694;SDS011;32845;59.422;17.930;2023-08-08T13:20:15;4.43;;;0.65;;
44694;SDS011;32845;59.422;17.930;2023-08-08T13:24:46;6.18;;;0.60;;
44694;SDS011;32845;59.422;17.930;2023-08-08T13:29:17;5.57;;;0.60;;
44694;SDS011;32845;59.422;17.930;2023-08-08T13:33:47;1.70;;;0.65;;
44694;SDS011;32845;59.422;17.930;2023-08-08T13:38:19;2.85;;;0.60;;
44694;SDS011;32845;59.422;17.930;2023-08-08T13:42:49;2.20;;;0.65;;
44694;SDS011;32845;59.422;17.930;2023-08-08T13:47:20;1.75;;;0.90;;
44694;SDS011;32845;59.422;17.930;2023-08-08T13:51:51;2.45;;;0.70;;
44694;SDS011;32845;59.422;17.930;2023-08-08T13:56:23;3.65;;;0.95;;
44694;SDS011;32845;59.422;17.930;2023-08-08T14:00:54;8.63;;;0.85;;
44694;SDS011;32845;59.422;17.930;2023-08-08T14:05:26;5.03;;;0.77;;
44694;SDS011;32845;59.422;17.930;2023-08-08T14:09:58;1.38;;;0.60;;
44694;SDS011;32845;59.422;17.930;2023-08-08T14:14:29;4.43;;;0.52;;
44694;SDS011;32845;59.422;17.930;2023-08-08T14:18:59;7.25;;;0.60;;
44694;SDS011;32845;59.422;17.930;2023-08-08T14:23:30;7.25;;;0.70;;
44694;SDS011;32845;59.422;17.930;2023-08-08T14:28:01;4.63;;;0.60;;
44694;SDS011;32845;59.422;17.930;2023-08-08T14:32:34;3.05;;;0.70;;
44694;SDS011;32845;59.422;17.930;2023-08-08T14:37:04;3.03;;;0.60;;
44694;SDS011;32845;59.422;17.930;2023-08-08T14:41:41;4.22;;;0.47;;
44694;SDS011;32845;59.422;17.930;2023-08-08T14:46:11;1.60;;;0.43;;
44694;SDS011;32845;59.422;17.930;2023-08-08T14:50:42;3.13;;;0.40;;
44694;SDS011;32845;59.422;17.930;2023-08-08T14:55:12;3.60;;;0.70;;
44694;SDS011;32845;59.422;17.930;2023-08-08T14:59:43;3.92;;;0.52;;
44694;SDS011;32845;59.422;17.930;2023-08-08T15:04:14;7.20;;;0.50;;
44694;SDS011;32845;59.422;17.930;2023-08-08T15:08:44;4.30;;;0.68;;
44694;SDS011;32845;59.422;17.930;2023-08-08T15:13:15;5.40;;;0.73;;
44694;SDS011;32845;59.422;17.930;2023-08-08T15:17:46;2.70;;;0.68;;
44694;SDS011;32845;59.422;17.930;2023-08-08T15:22:16;4.75;;;0.70;;
44694;SDS011;32845;59.422;17.930;2023-08-08T15:26:47;3.15;;;0.55;;
44694;SDS011;32845;59.422;17.930;2023-08-08T15:31:22;6.47;;;0.60;;
44694;SDS011;32845;59.422;17.930;2023-08-08T15:35:53;4.82;;;0.73;;
44694;SDS011;32845;59.422;17.930;2023-08-08T15:40:24;5.38;;;0.60;;
44694;SDS011;32845;59.422;17.930;2023-08-08T15:44:55;5.88;;;0.63;;
44694;SDS011;32845;59.422;17.930;2023-08-08T15:49:26;4.57;;;0.55;;
44694;SDS011;32845;59.422;17.930;2023-08-08T15:54:02;4.07;;;0.52;;
44694;SDS011;32845;59.422;17.930;2023-08-08T15:58:34;2.83;;;0.43;;
44694;SDS011;32845;59.422;17.930;2023-08-08T16:03:04;8.35;;;0.52;;
44694;SDS011;32845;59.422;17.930;2023-08-08T16:07:35;4.93;;;0.60;;
44694;SDS011;32845;59.422;17.930;2023-08-08T16:12:06;2.65;;;0.40;;
44694;SDS011;32845;59.422;17.930;2023-08-08T16:16:37;7.70;;;0.60;;
44694;SDS011;32845;59.422;17.930;2023-08-08T16:21:07;2.72;;;0.55;;
44694;SDS011;32845;59.422;17.930;2023-08-08T16:25:38;3.22;;;0.50;;
44694;SDS011;32845;59.422;17.930;2023-08-08T16:30:08;4.35;;;0.80;;
44694;SDS011;32845;59.422;17.930;2023-08-08T16:34:44;4.50;;;0.40;;
44694;SDS011;32845;59.422;17.930;2023-08-08T16:39:15;3.83;;;0.82;;
44694;SDS011;32845;59.422;17.930;2023-08-08T16:43:59;6.70;;;0.80;;
44694;SDS011;32845;59.422;17.930;2023-08-08T16:48:31;3.10;;;0.50;;
44694;SDS011;32845;59.422;17.930;2023-08-08T16:53:02;4.68;;;0.80;;
44694;SDS011;32845;59.422;17.930;2023-08-08T16:57:33;8.43;;;1.08;;
44694;SDS011;32845;59.422;17.930;2023-08-08T17:02:03;4.05;;;0.52;;
44694;SDS011;32845;59.422;17.930;2023-08-08T17:06:34;5.93;;;0.95;;
44694;SDS011;32845;59.422;17.930;2023-08-08T17:11:05;4.60;;;0.75;;
44694;SDS011;32845;59.422;17.930;2023-08-08T17:15:36;2.08;;;0.52;;
44694;SDS011;32845;59.422;17.930;2023-08-08T17:20:06;4.28;;;0.57;;
44694;SDS011;32845;59.422;17.930;2023-08-08T17:24:42;5.22;;;0.68;;
44694;SDS011;32845;59.422;17.930;2023-08-08T17:29:13;4.25;;;0.90;;
44694;SDS011;32845;59.422;17.930;2023-08-08T17:33:43;5.28;;;0.65;;
44694;SDS011;32845;59.422;17.930;2023-08-08T17:38:14;5.20;;;0.93;;
44694;SDS011;32845;59.422;17.930;2023-08-08T17:42:45;3.67;;;0.73;;
44694;SDS011;32845;59.422;17.930;2023-08-08T17:47:16;6.70;;;0.77;;
44694;SDS011;32845;59.422;17.930;2023-08-08T17:51:47;3.40;;;0.70;;
44694;SDS011;32845;59.422;17.930;2023-08-08T17:56:18;7.45;;;0.80;;
44694;SDS011;32845;59.422;17.930;2023-08-08T18:00:48;14.52;;;1.63;;
44694;SDS011;32845;59.422;17.930;2023-08-08T18:05:19;9.32;;;1.02;;
44694;SDS011;32845;59.422;17.930;2023-08-08T18:09:51;4.78;;;0.70;;
44694;SDS011;32845;59.422;17.930;2023-08-08T18:14:27;3.28;;;0.85;;
44694;SDS011;32845;59.422;17.930;2023-08-08T18:18:59;5.05;;;1.10;;
44694;SDS011;32845;59.422;17.930;2023-08-08T18:23:30;5.18;;;1.20;;
44694;SDS011;32845;59.422;17.930;2023-08-08T18:28:02;3.08;;;0.80;;
44694;SDS011;32845;59.422;17.930;2023-08-08T18:32:33;7.57;;;1.30;;
44694;SDS011;32845;59.422;17.930;2023-08-08T18:37:04;12.27;;;1.42;;
44694;SDS011;32845;59.422;17.930;2023-08-08T18:41:34;11.02;;;1.60;;
44694;SDS011;32845;59.422;17.930;2023-08-08T18:46:05;8.15;;;1.67;;
44694;SDS011;32845;59.422;17.930;2023-08-08T18:50:36;12.63;;;1.20;;
44694;SDS011;32845;59.422;17.930;2023-08-08T18:55:07;15.45;;;1.40;;
44694;SDS011;32845;59.422;17.930;2023-08-08T18:59:39;11.38;;;1.92;;
44694;SDS011;32845;59.422;17.930;2023-08-08T19:04:15;6.18;;;1.63;;
44694;SDS011;32845;59.422;17.930;2023-08-08T19:08:45;6.30;;;1.63;;
44694;SDS011;32845;59.422;17.930;2023-08-08T19:13:16;10.60;;;1.52;;
44694;SDS011;32845;59.422;17.930;2023-08-08T19:17:46;9.27;;;1.83;;
44694;SDS011;32845;59.422;17.930;2023-08-08T19:22:22;11.02;;;2.78;;
44694;SDS011;32845;59.422;17.930;2023-08-08T19:26:53;12.18;;;1.85;;
44694;SDS011;32845;59.422;17.930;2023-08-08T19:31:23;10.45;;;1.40;;
44694;SDS011;32845;59.422;17.930;2023-08-08T19:35:54;3.65;;;0.95;;
44694;SDS011;32845;59.422;17.930;2023-08-08T19:40:26;8.40;;;1.60;;
44694;SDS011;32845;59.422;17.930;2023-08-08T19:44:57;9.45;;;1.38;;
44694;SDS011;32845;59.422;17.930;2023-08-08T19:49:27;7.20;;;1.10;;
44694;SDS011;32845;59.422;17.930;2023-08-08T19:53:58;9.10;;;1.70;;
44694;SDS011;32845;59.422;17.930;2023-08-08T19:58:29;15.63;;;1.58;;
44694;SDS011;32845;59.422;17.930;2023-08-08T20:02:59;14.23;;;1.70;;
44694;SDS011;32845;59.422;17.930;2023-08-08T20:07:30;10.52;;;1.42;;
44694;SDS011;32845;59.422;17.930;2023-08-08T20:12:06;12.23;;;1.40;;
44694;SDS011;32845;59.422;17.930;2023-08-08T20:16:36;9.27;;;1.48;;
44694;SDS011;32845;59.422;17.930;2023-08-08T20:21:12;6.28;;;1.42;;
44694;SDS011;32845;59.422;17.930;2023-08-08T20:25:43;15.02;;;1.08;;
44694;SDS011;32845;59.422;17.930;2023-08-08T20:30:14;3.25;;;1.00;;
44694;SDS011;32845;59.422;17.930;2023-08-08T20:34:55;11.57;;;1.02;;
44694;SDS011;32845;59.422;17.930;2023-08-08T20:39:25;7.47;;;1.25;;
44694;SDS011;32845;59.422;17.930;2023-08-08T20:43:56;5.55;;;0.90;;
44694;SDS011;32845;59.422;17.930;2023-08-08T20:48:26;9.98;;;1.00;;
44694;SDS011;32845;59.422;17.930;2023-08-08T20:53:02;13.82;;;1.20;;
44694;SDS011;32845;59.422;17.930;2023-08-08T20:57:33;14.45;;;1.95;;
44694;SDS011;32845;59.422;17.930;2023-08-08T21:02:04;7.20;;;1.00;;
44694;SDS011;32845;59.422;17.930;2023-08-08T21:06:35;10.50;;;1.75;;
44694;SDS011;32845;59.422;17.930;2023-08-08T21:11:06;9.15;;;1.08;;
44694;SDS011;32845;59.422;17.930;2023-08-08T21:15:36;8.15;;;0.88;;
44694;SDS011;32845;59.422;17.930;2023-08-08T21:20:07;3.70;;;0.88;;
44694;SDS011;32845;59.422;17.930;2023-08-08T21:24:42;7.03;;;1.10;;
44694;SDS011;32845;59.422;17.930;2023-08-08T21:29:13;10.65;;;1.45;;
44694;SDS011;32845;59.422;17.930;2023-08-08T21:33:49;5.22;;;1.10;;
44694;SDS011;32845;59.422;17.930;2023-08-08T21:38:19;12.35;;;1.48;;
44694;SDS011;32845;59.422;17.930;2023-08-08T21:42:51;9.13;;;0.88;;
44694;SDS011;32845;59.422;17.930;2023-08-08T21:47:22;9.65;;;1.48;;
44694;SDS011;32845;59.422;17.930;2023-08-08T21:51:52;5.45;;;1.00;;
44694;SDS011;32845;59.422;17.930;2023-08-08T21:56:23;12.00;;;1.55;;
44694;SDS011;32845;59.422;17.930;2023-08-08T22:00:54;7.15;;;1.02;;
44694;SDS011;32845;59.422;17.930;2023-08-08T22:05:25;10.55;;;1.02;;
44694;SDS011;32845;59.422;17.930;2023-08-08T22:09:55;7.93;;;1.30;;
44694;SDS011;32845;59.422;17.930;2023-08-08T22:14:26;5.00;;;0.93;;
44694;SDS011;32845;59.422;17.930;2023-08-08T22:18:57;8.43;;;1.10;;
44694;SDS011;32845;59.422;17.930;2023-08-08T22:23:32;5.18;;;1.13;;
44694;SDS011;32845;59.422;17.930;2023-08-08T22:28:03;6.10;;;0.88;;
44694;SDS011;32845;59.422;17.930;2023-08-08T22:32:34;5.38;;;0.90;;
44694;SDS011;32845;59.422;17.930;2023-08-08T22:37:05;7.78;;;1.20;;
44694;SDS011;32845;59.422;17.930;2023-08-08T22:41:41;11.77;;;1.13;;
44694;SDS011;32845;59.422;17.930;2023-08-08T22:46:11;14.43;;;2.22;;
44694;SDS011;32845;59.422;17.930;2023-08-08T22:50:42;9.77;;;1.30;;
44694;SDS011;32845;59.422;17.930;2023-08-08T22:55:14;7.40;;;1.30;;
44694;SDS011;32845;59.422;17.930;2023-08-08T22:59:44;8.25;;;1.10;;
44694;SDS011;32845;59.422;17.930;2023-08-08T23:04:20;8.95;;;1.25;;
44694;SDS011;32845;59.422;17.930;2023-08-08T23:08:51;6.60;;;1.30;;
44694;SDS011;32845;59.422;17.930;2023-08-08T23:13:22;12.85;;;1.70;;
44694;SDS011;32845;59.422;17.930;2023-08-08T23:17:52;7.13;;;1.48;;
44694;SDS011;32845;59.422;17.930;2023-08-08T23:22:23;7.68;;;1.30;;
44694;SDS011;32845;59.422;17.930;2023-08-08T23:26:54;7.57;;;1.33;;
44694;SDS011;32845;59.422;17.930;2023-08-08T23:31:25;9.38;;;1.08;;
44694;SDS011;32845;59.422;17.930;2023-08-08T23:35:56;9.25;;;1.25;;
44694;SDS011;32845;59.422;17.930;2023-08-08T23:40:26;6.50;;;1.02;;
44694;SDS011;32845;59.422;17.930;2023-08-08T23:44:57;9.15;;;1.40;;
44694;SDS011;32845;59.422;17.930;2023-08-08T23:49:28;9.60;;;1.40;;
44694;SDS011;32845;59.422;17.930;2023-08-08T23:53:58;13.32;;;1.25;;
44694;SDS011;32845;59.422;17.930;2023-08-08T23:58:30;9.63;;;1.23;;
